createdAt,value
2023-05-17T00:01:56.672Z,46.69
2023-05-17T00:04:24.231Z,47.27
2023-05-17T00:06:51.719Z,47.10
2023-05-17T00:09:19.011Z,46.86
2023-05-17T00:11:46.888Z,46.76
2023-05-17T00:14:14.309Z,45.85
2023-05-17T00:16:41.721Z,45.60
2023-05-17T00:19:11.726Z,46.00
2023-05-17T00:21:38.894Z,45.88
2023-05-17T00:24:06.840Z,45.71
2023-05-17T00:26:33.992Z,46.54
2023-05-17T00:29:01.529Z,47.37
2023-05-17T00:31:28.730Z,47.08
2023-05-17T00:33:55.937Z,47.88
2023-05-17T00:36:23.358Z,43.04
2023-05-17T00:38:50.729Z,45.89
2023-05-17T00:41:18.252Z,47.83
2023-05-17T00:43:46.635Z,51.57
2023-05-17T00:46:13.868Z,54.05
2023-05-17T00:48:41.661Z,56.20
2023-05-17T00:51:08.784Z,58.16
2023-05-17T00:53:37.412Z,59.53
2023-05-17T00:56:05.251Z,60.96
2023-05-17T00:58:33.674Z,61.54
2023-05-17T01:01:01.137Z,63.05
2023-05-17T01:03:28.785Z,62.16
2023-05-17T01:05:56.514Z,62.98
2023-05-17T01:08:23.781Z,62.75
2023-05-17T01:11:00.815Z,63.06
2023-05-17T01:13:41.134Z,61.86
2023-05-17T01:16:23.033Z,61.81
2023-05-17T01:18:58.957Z,59.68
2023-05-17T01:21:46.508Z,57.56
2023-05-17T01:24:33.966Z,59.17
2023-05-17T01:27:02.099Z,59.58
2023-05-17T01:29:29.932Z,60.37
2023-05-17T01:31:59.772Z,61.72
2023-05-17T01:34:27.537Z,61.68
2023-05-17T01:36:55.143Z,62.47
2023-05-17T01:39:22.745Z,63.80
2023-05-17T01:42:22.931Z,64.68
2023-05-17T01:45:06.366Z,66.36
2023-05-17T01:47:57.326Z,66.65
2023-05-17T01:50:26.633Z,67.88
2023-05-17T01:52:55.285Z,68.35
2023-05-17T01:55:55.496Z,69.52
2023-05-17T01:58:25.695Z,70.70
2023-05-17T02:00:55.546Z,71.23
2023-05-17T02:03:22.875Z,72.17
2023-05-17T02:05:53.235Z,71.52
2023-05-17T02:08:20.462Z,72.12
2023-05-17T02:10:47.834Z,72.58
2023-05-17T02:13:15.302Z,71.01
2023-05-17T02:15:43.502Z,68.28
2023-05-17T02:18:11.571Z,68.93
2023-05-17T02:20:39.955Z,69.22
2023-05-17T02:23:08.239Z,68.76
2023-05-17T02:25:35.437Z,68.04
2023-05-17T02:28:02.673Z,68.84
2023-05-17T02:30:30.261Z,68.83
2023-05-17T02:32:57.694Z,67.53
2023-05-17T02:35:25.200Z,67.36
2023-05-17T02:37:52.417Z,65.54
2023-05-17T02:40:19.833Z,63.23
2023-05-17T02:42:47.144Z,64.05
2023-05-17T02:45:14.702Z,62.36
2023-05-17T02:47:42.403Z,54.05
2023-05-17T02:50:10.238Z,55.51
2023-05-17T02:52:37.900Z,55.13
2023-05-17T02:55:06.706Z,53.98
2023-05-17T02:57:34.161Z,50.88
2023-05-17T03:00:02.423Z,47.67
2023-05-17T03:02:31.056Z,48.82
2023-05-17T03:04:58.567Z,49.12
2023-05-17T03:07:26.571Z,48.39
2023-05-17T03:09:54.428Z,51.03
2023-05-17T03:12:22.688Z,47.50
2023-05-17T03:14:49.943Z,46.73
2023-05-17T03:17:17.676Z,45.52
2023-05-17T03:19:45.916Z,44.73
2023-05-17T03:22:13.589Z,45.27
2023-05-17T03:24:41.492Z,43.81
2023-05-17T03:27:08.486Z,45.64
2023-05-17T03:29:36.566Z,41.54
2023-05-17T03:32:04.193Z,36.17
2023-05-17T03:34:31.831Z,31.92
2023-05-17T03:36:58.944Z,34.44
2023-05-17T03:39:26.931Z,34.35
2023-05-17T03:41:54.444Z,32.46
2023-05-17T03:44:23.301Z,35.23
2023-05-17T03:46:51.503Z,32.90
2023-05-17T03:49:19.350Z,33.99
2023-05-17T03:51:49.043Z,28.20
2023-05-17T03:54:17.847Z,25.77
2023-05-17T03:56:48.961Z,26.72
2023-05-17T03:59:17.959Z,24.94
2023-05-17T04:01:46.234Z,26.09
2023-05-17T04:04:14.471Z,27.80
2023-05-17T04:06:41.695Z,27.90
2023-05-17T04:09:11.243Z,28.49
